sensor_id;sensor_type;location;lat;lon;timestamp;temperature;humidity
49413;DHT22;35493;50.276;9.372;2023-02-20T00:00:22;8.70;87.60
49413;DHT22;35493;50.276;9.372;2023-02-20T00:02:50;8.80;87.40
49413;DHT22;35493;50.276;9.372;2023-02-20T00:05:23;8.70;87.30
49413;DHT22;35493;50.276;9.372;2023-02-20T00:07:52;8.70;87.30
49413;DHT22;35493;50.276;9.372;2023-02-20T00:10:19;8.70;87.20
49413;DHT22;35493;50.276;9.372;2023-02-20T00:12:45;8.60;87.00
49413;DHT22;35493;50.276;9.372;2023-02-20T00:15:17;8.60;86.80
49413;DHT22;35493;50.276;9.372;2023-02-20T00:17:45;8.60;86.70
49413;DHT22;35493;50.276;9.372;2023-02-20T00:20:13;8.60;86.20
49413;DHT22;35493;50.276;9.372;2023-02-20T00:22:40;8.50;86.30
49413;DHT22;35493;50.276;9.372;2023-02-20T00:25:08;8.50;86.20
49413;DHT22;35493;50.276;9.372;2023-02-20T00:27:36;8.50;86.30
49413;DHT22;35493;50.276;9.372;2023-02-20T00:30:04;8.40;86.10
49413;DHT22;35493;50.276;9.372;2023-02-20T00:32:33;8.40;86.20
49413;DHT22;35493;50.276;9.372;2023-02-20T00:35:00;8.30;86.20
49413;DHT22;35493;50.276;9.372;2023-02-20T00:37:27;8.30;86.30
49413;DHT22;35493;50.276;9.372;2023-02-20T00:39:54;8.40;86.50
49413;DHT22;35493;50.276;9.372;2023-02-20T00:42:22;8.30;86.10
49413;DHT22;35493;50.276;9.372;2023-02-20T00:44:49;8.30;86.20
49413;DHT22;35493;50.276;9.372;2023-02-20T00:47:16;8.30;86.40
49413;DHT22;35493;50.276;9.372;2023-02-20T00:49:43;8.20;86.40
49413;DHT22;35493;50.276;9.372;2023-02-20T00:52:13;8.20;86.20
49413;DHT22;35493;50.276;9.372;2023-02-20T00:54:39;8.20;86.40
49413;DHT22;35493;50.276;9.372;2023-02-20T00:57:06;8.20;86.40
49413;DHT22;35493;50.276;9.372;2023-02-20T00:59:35;8.20;86.40
49413;DHT22;35493;50.276;9.372;2023-02-20T01:02:01;8.20;86.30
49413;DHT22;35493;50.276;9.372;2023-02-20T01:04:28;8.20;86.60
49413;DHT22;35493;50.276;9.372;2023-02-20T01:06:55;8.10;86.80
49413;DHT22;35493;50.276;9.372;2023-02-20T01:09:22;8.10;86.90
49413;DHT22;35493;50.276;9.372;2023-02-20T01:11:51;8.10;87.20
49413;DHT22;35493;50.276;9.372;2023-02-20T01:14:19;8.10;87.20
49413;DHT22;35493;50.276;9.372;2023-02-20T01:16:50;8.10;87.40
49413;DHT22;35493;50.276;9.372;2023-02-20T01:19:18;8.10;87.40
49413;DHT22;35493;50.276;9.372;2023-02-20T01:21:45;8.10;87.50
49413;DHT22;35493;50.276;9.372;2023-02-20T01:24:13;8.00;87.60
49413;DHT22;35493;50.276;9.372;2023-02-20T01:26:40;8.00;87.60
49413;DHT22;35493;50.276;9.372;2023-02-20T01:29:07;8.00;87.70
49413;DHT22;35493;50.276;9.372;2023-02-20T01:31:34;8.00;87.70
49413;DHT22;35493;50.276;9.372;2023-02-20T01:34:03;8.00;87.80
49413;DHT22;35493;50.276;9.372;2023-02-20T01:36:31;8.00;87.70
49413;DHT22;35493;50.276;9.372;2023-02-20T01:39:01;8.00;87.70
49413;DHT22;35493;50.276;9.372;2023-02-20T01:41:28;8.00;87.70
49413;DHT22;35493;50.276;9.372;2023-02-20T01:43:54;8.00;87.70
49413;DHT22;35493;50.276;9.372;2023-02-20T01:46:49;8.00;87.70
49413;DHT22;35493;50.276;9.372;2023-02-20T01:49:22;7.90;87.60
49413;DHT22;35493;50.276;9.372;2023-02-20T01:51:54;7.90;87.50
49413;DHT22;35493;50.276;9.372;2023-02-20T01:54:25;7.90;87.50
49413;DHT22;35493;50.276;9.372;2023-02-20T01:56:57;7.90;87.60
49413;DHT22;35493;50.276;9.372;2023-02-20T01:59:26;7.90;87.60
49413;DHT22;35493;50.276;9.372;2023-02-20T02:01:55;7.90;87.50
49413;DHT22;35493;50.276;9.372;2023-02-20T02:04:24;7.90;87.60
49413;DHT22;35493;50.276;9.372;2023-02-20T02:06:52;7.90;87.40
49413;DHT22;35493;50.276;9.372;2023-02-20T02:09:33;7.90;87.10
49413;DHT22;35493;50.276;9.372;2023-02-20T02:12:03;7.80;87.10
49413;DHT22;35493;50.276;9.372;2023-02-20T02:14:30;7.80;86.90
49413;DHT22;35493;50.276;9.372;2023-02-20T02:17:15;7.70;86.90
49413;DHT22;35493;50.276;9.372;2023-02-20T02:20:13;7.70;86.90
49413;DHT22;35493;50.276;9.372;2023-02-20T02:23:13;7.70;86.90
49413;DHT22;35493;50.276;9.372;2023-02-20T02:25:54;7.70;86.90
49413;DHT22;35493;50.276;9.372;2023-02-20T02:31:58;7.60;86.90
49413;DHT22;35493;50.276;9.372;2023-02-20T02:37:46;7.50;86.80
49413;DHT22;35493;50.276;9.372;2023-02-20T02:40:19;7.50;86.70
49413;DHT22;35493;50.276;9.372;2023-02-20T02:42:54;7.50;86.80
49413;DHT22;35493;50.276;9.372;2023-02-20T02:45:26;7.40;86.60
49413;DHT22;35493;50.276;9.372;2023-02-20T02:47:59;7.40;86.80
49413;DHT22;35493;50.276;9.372;2023-02-20T02:50:32;7.40;86.80
49413;DHT22;35493;50.276;9.372;2023-02-20T02:53:03;7.30;86.60
49413;DHT22;35493;50.276;9.372;2023-02-20T02:55:31;7.30;86.50
49413;DHT22;35493;50.276;9.372;2023-02-20T02:57:59;7.30;86.60
49413;DHT22;35493;50.276;9.372;2023-02-20T03:00:29;7.20;86.70
49413;DHT22;35493;50.276;9.372;2023-02-20T03:03:04;7.20;86.60
49413;DHT22;35493;50.276;9.372;2023-02-20T03:05:37;7.20;86.70
49413;DHT22;35493;50.276;9.372;2023-02-20T03:08:17;7.20;86.60
49413;DHT22;35493;50.276;9.372;2023-02-20T03:10:59;7.10;86.60
49413;DHT22;35493;50.276;9.372;2023-02-20T03:13:31;7.10;86.70
49413;DHT22;35493;50.276;9.372;2023-02-20T03:16:20;7.10;86.70
49413;DHT22;35493;50.276;9.372;2023-02-20T03:18:50;7.00;86.80
49413;DHT22;35493;50.276;9.372;2023-02-20T03:21:21;7.00;86.70
49413;DHT22;35493;50.276;9.372;2023-02-20T03:23:53;6.90;86.70
49413;DHT22;35493;50.276;9.372;2023-02-20T03:26:24;7.00;86.70
49413;DHT22;35493;50.276;9.372;2023-02-20T03:28:58;7.00;86.60
49413;DHT22;35493;50.276;9.372;2023-02-20T03:31:30;6.90;86.60
49413;DHT22;35493;50.276;9.372;2023-02-20T03:34:05;6.90;86.60
49413;DHT22;35493;50.276;9.372;2023-02-20T03:36:57;6.80;86.60
49413;DHT22;35493;50.276;9.372;2023-02-20T03:39:48;6.80;86.60
49413;DHT22;35493;50.276;9.372;2023-02-20T03:42:36;6.70;86.70
49413;DHT22;35493;50.276;9.372;2023-02-20T03:45:29;6.70;87.00
49413;DHT22;35493;50.276;9.372;2023-02-20T03:47:59;6.70;87.10
49413;DHT22;35493;50.276;9.372;2023-02-20T03:50:30;6.70;87.00
49413;DHT22;35493;50.276;9.372;2023-02-20T03:52:58;6.70;87.00
49413;DHT22;35493;50.276;9.372;2023-02-20T03:55:26;6.70;86.90
49413;DHT22;35493;50.276;9.372;2023-02-20T03:57:58;6.70;87.00
49413;DHT22;35493;50.276;9.372;2023-02-20T04:00:32;6.60;87.00
49413;DHT22;35493;50.276;9.372;2023-02-20T04:09:29;6.50;87.20
49413;DHT22;35493;50.276;9.372;2023-02-20T04:12:07;6.50;87.20
49413;DHT22;35493;50.276;9.372;2023-02-20T04:14:38;6.50;87.30
49413;DHT22;35493;50.276;9.372;2023-02-20T04:17:11;6.40;87.40
49413;DHT22;35493;50.276;9.372;2023-02-20T04:19:40;6.40;87.60
49413;DHT22;35493;50.276;9.372;2023-02-20T04:22:13;6.40;87.90
49413;DHT22;35493;50.276;9.372;2023-02-20T04:24:52;6.50;87.80
49413;DHT22;35493;50.276;9.372;2023-02-20T04:27:31;6.50;88.00
49413;DHT22;35493;50.276;9.372;2023-02-20T04:30:05;6.50;87.90
49413;DHT22;35493;50.276;9.372;2023-02-20T04:32:38;6.50;88.00
49413;DHT22;35493;50.276;9.372;2023-02-20T04:35:15;6.50;88.00
49413;DHT22;35493;50.276;9.372;2023-02-20T04:37:51;6.40;87.80
49413;DHT22;35493;50.276;9.372;2023-02-20T04:40:25;6.40;87.80
49413;DHT22;35493;50.276;9.372;2023-02-20T04:43:00;6.50;87.90
49413;DHT22;35493;50.276;9.372;2023-02-20T04:45:34;6.50;87.70
49413;DHT22;35493;50.276;9.372;2023-02-20T04:48:07;6.50;87.50
49413;DHT22;35493;50.276;9.372;2023-02-20T04:50:41;6.60;87.40
49413;DHT22;35493;50.276;9.372;2023-02-20T04:53:16;6.60;87.40
49413;DHT22;35493;50.276;9.372;2023-02-20T04:55:50;6.60;87.30
49413;DHT22;35493;50.276;9.372;2023-02-20T04:58:26;6.70;87.10
49413;DHT22;35493;50.276;9.372;2023-02-20T05:01:04;6.70;87.10
49413;DHT22;35493;50.276;9.372;2023-02-20T05:03:38;6.60;87.30
49413;DHT22;35493;50.276;9.372;2023-02-20T05:06:11;6.60;87.30
49413;DHT22;35493;50.276;9.372;2023-02-20T05:08:44;6.60;87.20
49413;DHT22;35493;50.276;9.372;2023-02-20T05:11:18;6.60;87.20
49413;DHT22;35493;50.276;9.372;2023-02-20T05:13:59;6.60;87.30
49413;DHT22;35493;50.276;9.372;2023-02-20T05:16:35;6.50;87.40
49413;DHT22;35493;50.276;9.372;2023-02-20T05:19:02;6.50;87.60
49413;DHT22;35493;50.276;9.372;2023-02-20T05:21:36;6.60;87.40
49413;DHT22;35493;50.276;9.372;2023-02-20T05:24:27;6.50;87.50
49413;DHT22;35493;50.276;9.372;2023-02-20T05:27:01;6.50;87.20
49413;DHT22;35493;50.276;9.372;2023-02-20T05:29:35;6.50;87.30
49413;DHT22;35493;50.276;9.372;2023-02-20T05:32:09;6.50;87.30
49413;DHT22;35493;50.276;9.372;2023-02-20T05:34:42;6.50;87.30
49413;DHT22;35493;50.276;9.372;2023-02-20T05:37:17;6.50;87.20
49413;DHT22;35493;50.276;9.372;2023-02-20T05:39:51;6.60;87.10
49413;DHT22;35493;50.276;9.372;2023-02-20T05:42:25;6.60;86.90
49413;DHT22;35493;50.276;9.372;2023-02-20T05:44:59;6.60;86.90
49413;DHT22;35493;50.276;9.372;2023-02-20T05:47:36;6.60;86.90
49413;DHT22;35493;50.276;9.372;2023-02-20T05:50:10;6.50;87.00
49413;DHT22;35493;50.276;9.372;2023-02-20T05:52:43;6.60;86.90
49413;DHT22;35493;50.276;9.372;2023-02-20T05:55:17;6.50;86.80
49413;DHT22;35493;50.276;9.372;2023-02-20T05:57:50;6.50;87.10
49413;DHT22;35493;50.276;9.372;2023-02-20T06:00:25;6.50;87.30
49413;DHT22;35493;50.276;9.372;2023-02-20T06:02:58;6.50;87.20
49413;DHT22;35493;50.276;9.372;2023-02-20T06:05:31;6.40;87.30
49413;DHT22;35493;50.276;9.372;2023-02-20T06:08:04;6.40;87.30
49413;DHT22;35493;50.276;9.372;2023-02-20T06:10:45;6.50;87.20
49413;DHT22;35493;50.276;9.372;2023-02-20T06:13:25;6.50;87.30
49413;DHT22;35493;50.276;9.372;2023-02-20T06:15:59;6.40;87.50
49413;DHT22;35493;50.276;9.372;2023-02-20T06:18:33;6.40;87.40
49413;DHT22;35493;50.276;9.372;2023-02-20T06:21:10;6.40;87.40
49413;DHT22;35493;50.276;9.372;2023-02-20T06:23:44;6.40;87.50
49413;DHT22;35493;50.276;9.372;2023-02-20T06:26:18;6.40;87.40
49413;DHT22;35493;50.276;9.372;2023-02-20T06:28:51;6.50;87.30
49413;DHT22;35493;50.276;9.372;2023-02-20T06:31:27;6.50;87.30
49413;DHT22;35493;50.276;9.372;2023-02-20T06:34:00;6.50;87.30
49413;DHT22;35493;50.276;9.372;2023-02-20T06:36:35;6.50;87.30
49413;DHT22;35493;50.276;9.372;2023-02-20T06:39:11;6.50;87.50
49413;DHT22;35493;50.276;9.372;2023-02-20T06:41:45;6.50;87.30
49413;DHT22;35493;50.276;9.372;2023-02-20T06:44:18;6.50;87.70
49413;DHT22;35493;50.276;9.372;2023-02-20T06:46:52;6.40;88.00
49413;DHT22;35493;50.276;9.372;2023-02-20T06:49:26;6.40;88.10
49413;DHT22;35493;50.276;9.372;2023-02-20T06:51:59;6.50;88.30
49413;DHT22;35493;50.276;9.372;2023-02-20T06:54:32;6.40;88.30
49413;DHT22;35493;50.276;9.372;2023-02-20T06:57:06;6.50;88.30
49413;DHT22;35493;50.276;9.372;2023-02-20T06:59:40;6.50;88.30
49413;DHT22;35493;50.276;9.372;2023-02-20T07:02:19;6.50;88.30
49413;DHT22;35493;50.276;9.372;2023-02-20T07:04:53;6.60;88.40
49413;DHT22;35493;50.276;9.372;2023-02-20T07:07:27;6.60;88.60
49413;DHT22;35493;50.276;9.372;2023-02-20T07:10:07;6.60;88.40
49413;DHT22;35493;50.276;9.372;2023-02-20T07:12:48;6.60;88.50
49413;DHT22;35493;50.276;9.372;2023-02-20T07:15:21;6.60;88.70
49413;DHT22;35493;50.276;9.372;2023-02-20T07:17:56;6.60;88.50
49413;DHT22;35493;50.276;9.372;2023-02-20T07:20:30;6.60;88.60
49413;DHT22;35493;50.276;9.372;2023-02-20T07:23:03;6.70;88.60
49413;DHT22;35493;50.276;9.372;2023-02-20T07:25:37;6.60;88.60
49413;DHT22;35493;50.276;9.372;2023-02-20T07:28:04;6.70;88.60
49413;DHT22;35493;50.276;9.372;2023-02-20T07:30:39;6.70;88.70
49413;DHT22;35493;50.276;9.372;2023-02-20T07:33:14;6.70;88.80
49413;DHT22;35493;50.276;9.372;2023-02-20T07:35:47;6.70;88.70
49413;DHT22;35493;50.276;9.372;2023-02-20T07:38:15;6.70;88.60
49413;DHT22;35493;50.276;9.372;2023-02-20T07:40:48;6.70;88.60
49413;DHT22;35493;50.276;9.372;2023-02-20T07:43:21;6.70;88.60
49413;DHT22;35493;50.276;9.372;2023-02-20T07:45:54;6.70;88.60
49413;DHT22;35493;50.276;9.372;2023-02-20T07:48:29;6.70;88.70
49413;DHT22;35493;50.276;9.372;2023-02-20T07:51:03;6.70;88.70
49413;DHT22;35493;50.276;9.372;2023-02-20T07:53:37;6.70;88.70
49413;DHT22;35493;50.276;9.372;2023-02-20T07:56:11;6.80;88.60
49413;DHT22;35493;50.276;9.372;2023-02-20T07:58:46;6.80;88.60
49413;DHT22;35493;50.276;9.372;2023-02-20T08:01:20;6.90;88.60
49413;DHT22;35493;50.276;9.372;2023-02-20T08:03:55;6.90;88.70
49413;DHT22;35493;50.276;9.372;2023-02-20T08:06:29;7.00;88.60
49413;DHT22;35493;50.276;9.372;2023-02-20T08:09:02;7.00;88.70
49413;DHT22;35493;50.276;9.372;2023-02-20T08:11:42;7.10;88.80
49413;DHT22;35493;50.276;9.372;2023-02-20T08:14:15;7.10;88.80
49413;DHT22;35493;50.276;9.372;2023-02-20T08:16:48;7.10;88.80
49413;DHT22;35493;50.276;9.372;2023-02-20T08:19:24;7.20;88.70
49413;DHT22;35493;50.276;9.372;2023-02-20T08:21:57;7.20;88.60
49413;DHT22;35493;50.276;9.372;2023-02-20T08:24:31;7.20;88.70
49413;DHT22;35493;50.276;9.372;2023-02-20T08:27:04;7.30;88.60
49413;DHT22;35493;50.276;9.372;2023-02-20T08:29:38;7.20;88.50
49413;DHT22;35493;50.276;9.372;2023-02-20T08:32:12;7.30;88.50
49413;DHT22;35493;50.276;9.372;2023-02-20T08:34:41;7.40;88.40
49413;DHT22;35493;50.276;9.372;2023-02-20T08:37:14;7.40;88.50
49413;DHT22;35493;50.276;9.372;2023-02-20T08:39:48;7.50;88.50
49413;DHT22;35493;50.276;9.372;2023-02-20T08:42:21;7.50;88.30
49413;DHT22;35493;50.276;9.372;2023-02-20T08:44:55;7.60;88.30
49413;DHT22;35493;50.276;9.372;2023-02-20T08:47:28;7.60;88.40
49413;DHT22;35493;50.276;9.372;2023-02-20T08:50:04;7.60;88.40
49413;DHT22;35493;50.276;9.372;2023-02-20T08:52:37;7.60;88.30
49413;DHT22;35493;50.276;9.372;2023-02-20T08:55:11;7.60;88.20
49413;DHT22;35493;50.276;9.372;2023-02-20T08:57:45;7.50;88.20
49413;DHT22;35493;50.276;9.372;2023-02-20T09:00:20;7.60;88.20
49413;DHT22;35493;50.276;9.372;2023-02-20T09:02:47;7.60;88.10
49413;DHT22;35493;50.276;9.372;2023-02-20T09:05:22;7.50;88.20
49413;DHT22;35493;50.276;9.372;2023-02-20T09:07:55;7.60;88.10
49413;DHT22;35493;50.276;9.372;2023-02-20T09:10:28;7.60;88.10
49413;DHT22;35493;50.276;9.372;2023-02-20T09:13:02;7.60;88.00
49413;DHT22;35493;50.276;9.372;2023-02-20T09:15:35;7.60;88.10
49413;DHT22;35493;50.276;9.372;2023-02-20T09:18:12;7.70;88.00
49413;DHT22;35493;50.276;9.372;2023-02-20T09:20:47;7.70;88.00
49413;DHT22;35493;50.276;9.372;2023-02-20T09:23:20;7.70;88.00
49413;DHT22;35493;50.276;9.372;2023-02-20T09:25:56;7.70;88.00
49413;DHT22;35493;50.276;9.372;2023-02-20T09:28:29;7.70;88.00
49413;DHT22;35493;50.276;9.372;2023-02-20T09:31:03;7.70;87.90
49413;DHT22;35493;50.276;9.372;2023-02-20T09:33:36;7.70;87.90
49413;DHT22;35493;50.276;9.372;2023-02-20T09:36:12;7.70;88.00
49413;DHT22;35493;50.276;9.372;2023-02-20T09:38:45;7.70;88.00
49413;DHT22;35493;50.276;9.372;2023-02-20T09:41:28;7.70;88.00
49413;DHT22;35493;50.276;9.372;2023-02-20T09:44:08;7.70;88.00
49413;DHT22;35493;50.276;9.372;2023-02-20T09:46:46;7.80;88.00
49413;DHT22;35493;50.276;9.372;2023-02-20T09:49:23;7.90;87.90
49413;DHT22;35493;50.276;9.372;2023-02-20T09:52:02;8.00;87.90
49413;DHT22;35493;50.276;9.372;2023-02-20T09:54:39;8.10;87.90
49413;DHT22;35493;50.276;9.372;2023-02-20T09:57:17;8.10;87.80
49413;DHT22;35493;50.276;9.372;2023-02-20T09:59:52;8.20;87.70
49413;DHT22;35493;50.276;9.372;2023-02-20T10:02:30;8.20;87.70
49413;DHT22;35493;50.276;9.372;2023-02-20T10:05:10;8.20;87.70
49413;DHT22;35493;50.276;9.372;2023-02-20T10:07:48;8.20;87.80
49413;DHT22;35493;50.276;9.372;2023-02-20T10:10:25;8.20;87.60
49413;DHT22;35493;50.276;9.372;2023-02-20T10:13:06;8.30;87.60
49413;DHT22;35493;50.276;9.372;2023-02-20T10:15:52;8.30;87.60
49413;DHT22;35493;50.276;9.372;2023-02-20T10:18:33;8.40;87.50
49413;DHT22;35493;50.276;9.372;2023-02-20T10:21:15;8.50;87.40
49413;DHT22;35493;50.276;9.372;2023-02-20T10:23:58;8.70;87.20
49413;DHT22;35493;50.276;9.372;2023-02-20T10:26:36;8.70;87.20
49413;DHT22;35493;50.276;9.372;2023-02-20T10:29:15;8.90;86.90
49413;DHT22;35493;50.276;9.372;2023-02-20T10:31:53;9.00;86.80
49413;DHT22;35493;50.276;9.372;2023-02-20T10:34:33;9.20;86.40
49413;DHT22;35493;50.276;9.372;2023-02-20T10:37:12;9.20;86.20
49413;DHT22;35493;50.276;9.372;2023-02-20T10:39:53;9.30;86.10
49413;DHT22;35493;50.276;9.372;2023-02-20T10:42:36;9.40;85.90
49413;DHT22;35493;50.276;9.372;2023-02-20T10:45:15;9.70;85.40
49413;DHT22;35493;50.276;9.372;2023-02-20T10:47:52;9.70;85.10
49413;DHT22;35493;50.276;9.372;2023-02-20T10:50:31;9.80;85.00
49413;DHT22;35493;50.276;9.372;2023-02-20T10:53:13;9.90;84.80
49413;DHT22;35493;50.276;9.372;2023-02-20T10:55:54;10.00;84.70
49413;DHT22;35493;50.276;9.372;2023-02-20T10:58:32;10.10;84.30
49413;DHT22;35493;50.276;9.372;2023-02-20T11:01:10;10.10;83.90
49413;DHT22;35493;50.276;9.372;2023-02-20T11:03:50;10.20;83.80
49413;DHT22;35493;50.276;9.372;2023-02-20T11:06:29;10.20;83.60
49413;DHT22;35493;50.276;9.372;2023-02-20T11:09:03;10.20;83.60
49413;DHT22;35493;50.276;9.372;2023-02-20T11:11:46;10.20;83.60
49413;DHT22;35493;50.276;9.372;2023-02-20T11:14:22;10.10;83.60
49413;DHT22;35493;50.276;9.372;2023-02-20T11:17:06;10.10;83.40
49413;DHT22;35493;50.276;9.372;2023-02-20T11:19:43;10.20;83.10
49413;DHT22;35493;50.276;9.372;2023-02-20T11:22:36;10.30;83.00
49413;DHT22;35493;50.276;9.372;2023-02-20T11:25:17;10.30;82.50
49413;DHT22;35493;50.276;9.372;2023-02-20T11:27:54;10.50;82.10
49413;DHT22;35493;50.276;9.372;2023-02-20T11:30:30;10.50;81.80
49413;DHT22;35493;50.276;9.372;2023-02-20T11:33:08;10.60;81.50
49413;DHT22;35493;50.276;9.372;2023-02-20T11:35:45;10.60;81.30
49413;DHT22;35493;50.276;9.372;2023-02-20T11:38:27;10.60;80.90
49413;DHT22;35493;50.276;9.372;2023-02-20T11:41:24;10.60;80.80
49413;DHT22;35493;50.276;9.372;2023-02-20T11:44:15;10.50;81.00
49413;DHT22;35493;50.276;9.372;2023-02-20T11:47:17;10.60;80.10
49413;DHT22;35493;50.276;9.372;2023-02-20T11:50:11;10.60;80.50
49413;DHT22;35493;50.276;9.372;2023-02-20T11:52:57;10.70;79.40
49413;DHT22;35493;50.276;9.372;2023-02-20T11:55:32;10.80;80.10
49413;DHT22;35493;50.276;9.372;2023-02-20T11:58:09;10.90;79.10
49413;DHT22;35493;50.276;9.372;2023-02-20T12:00:54;10.90;79.60
49413;DHT22;35493;50.276;9.372;2023-02-20T12:03:29;10.90;79.60
49413;DHT22;35493;50.276;9.372;2023-02-20T12:06:38;10.90;79.70
49413;DHT22;35493;50.276;9.372;2023-02-20T12:09:16;11.00;79.20
49413;DHT22;35493;50.276;9.372;2023-02-20T12:11:57;11.00;79.00
49413;DHT22;35493;50.276;9.372;2023-02-20T12:14:30;11.00;79.50
49413;DHT22;35493;50.276;9.372;2023-02-20T12:17:13;11.00;78.90
49413;DHT22;35493;50.276;9.372;2023-02-20T12:19:57;11.10;78.70
49413;DHT22;35493;50.276;9.372;2023-02-20T12:22:33;11.10;78.70
49413;DHT22;35493;50.276;9.372;2023-02-20T12:25:20;11.10;78.80
49413;DHT22;35493;50.276;9.372;2023-02-20T12:28:01;11.10;79.10
49413;DHT22;35493;50.276;9.372;2023-02-20T12:30:49;11.10;79.00
49413;DHT22;35493;50.276;9.372;2023-02-20T12:33:53;11.10;78.50
49413;DHT22;35493;50.276;9.372;2023-02-20T12:36:32;11.20;77.80
49413;DHT22;35493;50.276;9.372;2023-02-20T12:39:16;11.20;77.60
49413;DHT22;35493;50.276;9.372;2023-02-20T12:42:04;11.20;78.00
49413;DHT22;35493;50.276;9.372;2023-02-20T12:44:57;11.30;77.60
49413;DHT22;35493;50.276;9.372;2023-02-20T12:47:34;11.30;77.30
49413;DHT22;35493;50.276;9.372;2023-02-20T12:50:36;11.30;77.40
49413;DHT22;35493;50.276;9.372;2023-02-20T12:53:33;11.30;77.30
49413;DHT22;35493;50.276;9.372;2023-02-20T12:56:19;11.40;77.40
49413;DHT22;35493;50.276;9.372;2023-02-20T12:58:59;11.40;76.50
49413;DHT22;35493;50.276;9.372;2023-02-20T13:01:37;11.40;77.00
49413;DHT22;35493;50.276;9.372;2023-02-20T13:04:22;11.40;76.70
49413;DHT22;35493;50.276;9.372;2023-02-20T13:07:04;11.50;76.40
49413;DHT22;35493;50.276;9.372;2023-02-20T13:09:43;11.50;76.20
49413;DHT22;35493;50.276;9.372;2023-02-20T13:12:17;11.50;76.50
49413;DHT22;35493;50.276;9.372;2023-02-20T13:15:06;11.50;76.20
49413;DHT22;35493;50.276;9.372;2023-02-20T13:17:48;11.50;76.50
49413;DHT22;35493;50.276;9.372;2023-02-20T13:20:26;11.50;75.80
49413;DHT22;35493;50.276;9.372;2023-02-20T13:23:02;11.50;76.00
49413;DHT22;35493;50.276;9.372;2023-02-20T13:25:42;11.50;75.40
49413;DHT22;35493;50.276;9.372;2023-02-20T13:28:37;11.50;75.50
49413;DHT22;35493;50.276;9.372;2023-02-20T13:31:19;11.60;74.80
49413;DHT22;35493;50.276;9.372;2023-02-20T13:40:36;11.70;73.40
49413;DHT22;35493;50.276;9.372;2023-02-20T13:43:28;11.60;73.80
49413;DHT22;35493;50.276;9.372;2023-02-20T13:46:18;11.60;73.60
49413;DHT22;35493;50.276;9.372;2023-02-20T13:48:56;11.60;72.60
49413;DHT22;35493;50.276;9.372;2023-02-20T13:51:31;11.70;73.40
49413;DHT22;35493;50.276;9.372;2023-02-20T13:54:26;11.60;73.10
49413;DHT22;35493;50.276;9.372;2023-02-20T13:57:12;11.60;72.50
49413;DHT22;35493;50.276;9.372;2023-02-20T13:59:49;11.70;72.20
49413;DHT22;35493;50.276;9.372;2023-02-20T14:02:23;11.60;72.40
49413;DHT22;35493;50.276;9.372;2023-02-20T14:05:04;11.60;71.80
49413;DHT22;35493;50.276;9.372;2023-02-20T14:07:43;11.70;72.10
49413;DHT22;35493;50.276;9.372;2023-02-20T14:10:22;11.70;71.60
49413;DHT22;35493;50.276;9.372;2023-02-20T14:13:12;11.70;71.50
49413;DHT22;35493;50.276;9.372;2023-02-20T14:15:49;11.60;72.40
49413;DHT22;35493;50.276;9.372;2023-02-20T14:18:25;11.70;71.90
49413;DHT22;35493;50.276;9.372;2023-02-20T14:21:08;11.60;71.90
49413;DHT22;35493;50.276;9.372;2023-02-20T14:23:42;11.60;71.40
49413;DHT22;35493;50.276;9.372;2023-02-20T14:26:20;11.60;71.60
49413;DHT22;35493;50.276;9.372;2023-02-20T14:29:19;11.60;72.50
49413;DHT22;35493;50.276;9.372;2023-02-20T14:32:06;11.60;71.30
49413;DHT22;35493;50.276;9.372;2023-02-20T14:34:47;11.60;71.70
49413;DHT22;35493;50.276;9.372;2023-02-20T14:37:29;11.70;71.10
49413;DHT22;35493;50.276;9.372;2023-02-20T14:40:09;11.70;71.50
49413;DHT22;35493;50.276;9.372;2023-02-20T14:42:45;11.70;71.00
49413;DHT22;35493;50.276;9.372;2023-02-20T14:45:23;11.70;71.30
49413;DHT22;35493;50.276;9.372;2023-02-20T14:47:59;11.70;71.30
49413;DHT22;35493;50.276;9.372;2023-02-20T14:50:34;11.70;71.10
49413;DHT22;35493;50.276;9.372;2023-02-20T14:53:12;11.70;71.00
49413;DHT22;35493;50.276;9.372;2023-02-20T14:55:48;11.70;70.40
49413;DHT22;35493;50.276;9.372;2023-02-20T14:58:20;11.70;70.50
49413;DHT22;35493;50.276;9.372;2023-02-20T15:00:56;11.70;70.70
49413;DHT22;35493;50.276;9.372;2023-02-20T15:03:30;11.70;69.80
49413;DHT22;35493;50.276;9.372;2023-02-20T15:06:09;11.70;70.40
49413;DHT22;35493;50.276;9.372;2023-02-20T15:08:44;11.70;69.80
49413;DHT22;35493;50.276;9.372;2023-02-20T15:11:18;11.70;69.80
49413;DHT22;35493;50.276;9.372;2023-02-20T15:14:16;11.70;69.80
49413;DHT22;35493;50.276;9.372;2023-02-20T15:19:54;11.70;70.10
49413;DHT22;35493;50.276;9.372;2023-02-20T15:22:36;11.70;70.50
49413;DHT22;35493;50.276;9.372;2023-02-20T15:25:14;11.70;70.60
49413;DHT22;35493;50.276;9.372;2023-02-20T15:28:03;11.70;70.10
49413;DHT22;35493;50.276;9.372;2023-02-20T15:31:00;11.70;70.70
49413;DHT22;35493;50.276;9.372;2023-02-20T15:33:36;11.60;69.90
49413;DHT22;35493;50.276;9.372;2023-02-20T15:36:13;11.60;70.40
49413;DHT22;35493;50.276;9.372;2023-02-20T15:38:51;11.60;69.70
49413;DHT22;35493;50.276;9.372;2023-02-20T15:41:24;11.60;69.70
49413;DHT22;35493;50.276;9.372;2023-02-20T15:43:58;11.60;70.10
49413;DHT22;35493;50.276;9.372;2023-02-20T15:46:30;11.50;70.00
49413;DHT22;35493;50.276;9.372;2023-02-20T15:49:04;11.50;69.90
49413;DHT22;35493;50.276;9.372;2023-02-20T15:51:40;11.50;70.50
49413;DHT22;35493;50.276;9.372;2023-02-20T15:54:15;11.50;71.20
49413;DHT22;35493;50.276;9.372;2023-02-20T15:56:50;11.50;70.20
49413;DHT22;35493;50.276;9.372;2023-02-20T15:59:25;11.50;70.30
49413;DHT22;35493;50.276;9.372;2023-02-20T16:01:58;11.40;70.50
49413;DHT22;35493;50.276;9.372;2023-02-20T16:04:32;11.40;70.70
49413;DHT22;35493;50.276;9.372;2023-02-20T16:07:14;11.30;70.60
49413;DHT22;35493;50.276;9.372;2023-02-20T16:09:48;11.30;71.10
49413;DHT22;35493;50.276;9.372;2023-02-20T16:12:17;11.30;70.90
49413;DHT22;35493;50.276;9.372;2023-02-20T16:14:51;11.30;71.10
49413;DHT22;35493;50.276;9.372;2023-02-20T16:17:26;11.20;71.40
49413;DHT22;35493;50.276;9.372;2023-02-20T16:20:00;11.20;71.30
49413;DHT22;35493;50.276;9.372;2023-02-20T16:22:41;11.20;71.50
49413;DHT22;35493;50.276;9.372;2023-02-20T16:25:17;11.10;72.20
49413;DHT22;35493;50.276;9.372;2023-02-20T16:27:52;11.10;73.30
49413;DHT22;35493;50.276;9.372;2023-02-20T16:30:29;11.00;72.50
49413;DHT22;35493;50.276;9.372;2023-02-20T16:33:10;11.00;72.30
49413;DHT22;35493;50.276;9.372;2023-02-20T16:35:46;10.90;73.00
49413;DHT22;35493;50.276;9.372;2023-02-20T16:38:21;10.90;73.10
49413;DHT22;35493;50.276;9.372;2023-02-20T16:40:54;10.80;74.60
49413;DHT22;35493;50.276;9.372;2023-02-20T16:43:29;10.80;73.70
49413;DHT22;35493;50.276;9.372;2023-02-20T16:46:03;10.70;74.00
49413;DHT22;35493;50.276;9.372;2023-02-20T16:48:36;10.60;74.70
49413;DHT22;35493;50.276;9.372;2023-02-20T16:51:14;10.60;74.50
49413;DHT22;35493;50.276;9.372;2023-02-20T16:53:52;10.60;74.70
49413;DHT22;35493;50.276;9.372;2023-02-20T16:56:19;10.50;75.10
49413;DHT22;35493;50.276;9.372;2023-02-20T16:58:46;10.50;75.90